createdAt,value
2023-05-04T00:01:38.387Z,100836.47
2023-05-04T00:04:43.110Z,100838.97
2023-05-04T00:07:46.680Z,100835.56
2023-05-04T00:10:50.575Z,100816.97
2023-05-04T00:13:57.320Z,100816.13
2023-05-04T00:17:02.034Z,100830.84
2023-05-04T00:20:06.358Z,100830.06
2023-05-04T00:23:10.358Z,100828.53
2023-05-04T00:26:13.624Z,100829.38
2023-05-04T00:29:21.608Z,100811.53
2023-05-04T00:32:24.797Z,100825.19
2023-05-04T00:35:27.967Z,100826.31
2023-05-04T00:38:31.151Z,100820.50
2023-05-04T00:41:34.211Z,100820.44
2023-05-04T00:44:41.479Z,100818.72
2023-05-04T00:47:45.010Z,100794.75
2023-05-04T00:50:50.280Z,100821.81
2023-05-04T00:53:56.126Z,100823.69
2023-05-04T00:56:59.805Z,100812.63
2023-05-04T01:00:03.737Z,100797.41
2023-05-04T01:03:07.570Z,100816.00
2023-05-04T01:06:43.420Z,100809.75
2023-05-04T01:10:02.335Z,100808.41
2023-05-04T01:13:13.192Z,100808.41
2023-05-04T01:16:17.683Z,100837.16
2023-05-04T01:19:25.392Z,100842.94
2023-05-04T01:22:28.607Z,100814.00
2023-05-04T01:25:41.980Z,100801.72
2023-05-04T01:28:53.346Z,100802.72
2023-05-04T01:31:59.006Z,100799.94
2023-05-04T01:35:02.690Z,100810.44
2023-05-04T01:38:06.812Z,100795.91
2023-05-04T01:41:10.065Z,100803.81
2023-05-04T01:44:13.344Z,100837.38
2023-05-04T01:47:16.928Z,100799.53
2023-05-04T01:50:21.231Z,100792.75
2023-05-04T01:53:24.820Z,100803.03
2023-05-04T01:56:29.948Z,100778.34
2023-05-04T01:59:33.626Z,100785.31
2023-05-04T02:02:36.916Z,100781.88
2023-05-04T02:05:40.179Z,100784.41
2023-05-04T02:08:43.974Z,100782.72
2023-05-04T02:11:47.363Z,100788.72
2023-05-04T02:14:50.532Z,100782.34
2023-05-04T02:17:54.327Z,100788.97
2023-05-04T02:20:58.519Z,100783.06
2023-05-04T02:24:06.629Z,100755.38
2023-05-04T02:27:09.899Z,100744.13
2023-05-04T02:30:15.236Z,100768.88
2023-05-04T02:33:19.764Z,100782.75
2023-05-04T02:36:24.550Z,100781.97
2023-05-04T02:39:27.924Z,100781.97
2023-05-04T02:42:32.342Z,100774.13
2023-05-04T02:45:35.966Z,100785.50
2023-05-04T02:48:39.417Z,100784.66
2023-05-04T02:51:42.586Z,100776.56
2023-05-04T02:54:46.691Z,100786.19
2023-05-04T02:57:49.580Z,100795.16
2023-05-04T03:00:56.120Z,100802.63
2023-05-04T03:03:59.444Z,100805.22
2023-05-04T03:07:02.689Z,100801.88
2023-05-04T03:10:07.464Z,100813.19
2023-05-04T03:13:16.868Z,100821.03
2023-05-04T03:16:21.775Z,100807.16
2023-05-04T03:19:26.618Z,100791.03
2023-05-04T03:22:36.462Z,100814.47
2023-05-04T03:25:40.561Z,100791.03
2023-05-04T03:28:44.149Z,100801.22
2023-05-04T03:31:48.394Z,100802.91
2023-05-04T03:34:53.048Z,100808.16
2023-05-04T03:37:58.082Z,100812.09
2023-05-04T03:41:02.667Z,100804.13
2023-05-04T03:44:06.178Z,100813.44
2023-05-04T03:47:10.882Z,100807.31
2023-05-04T03:50:14.578Z,100829.41
2023-05-04T03:53:19.477Z,100815.56
2023-05-04T03:56:22.447Z,100812.09
2023-05-04T03:59:25.621Z,100818.75
2023-05-04T04:02:29.171Z,100821.19
2023-05-04T04:05:41.499Z,100814.97
2023-05-04T04:08:55.322Z,100830.44
2023-05-04T04:11:59.244Z,100829.53
2023-05-04T04:15:02.421Z,100832.09
2023-05-04T04:18:07.771Z,100821.84
2023-05-04T04:21:12.867Z,100826.03
2023-05-04T04:24:16.351Z,100831.91
2023-05-04T04:27:19.531Z,100843.84
2023-05-04T04:30:23.191Z,100849.72
2023-05-04T04:33:26.802Z,100822.84
2023-05-04T04:36:30.594Z,100846.44
2023-05-04T04:39:33.703Z,100860.44
2023-05-04T04:42:36.618Z,100843.25
2023-05-04T04:45:41.456Z,100854.81
2023-05-04T04:48:55.357Z,100864.47
2023-05-04T04:51:58.734Z,100856.72
2023-05-04T04:55:01.942Z,100855.03
2023-05-04T04:58:05.076Z,100850.47
2023-05-04T05:01:09.652Z,100845.75
2023-05-04T05:04:13.240Z,100873.19
2023-05-04T05:07:23.027Z,100858.41
2023-05-04T05:10:37.862Z,100861.69
2023-05-04T05:13:41.226Z,100858.59
2023-05-04T05:16:44.745Z,100862.84
2023-05-04T05:19:48.519Z,100867.97
2023-05-04T05:22:52.635Z,100861.72
2023-05-04T05:25:57.441Z,100852.41
2023-05-04T05:29:07.169Z,100881.16
2023-05-04T05:32:21.291Z,100862.59
2023-05-04T05:35:36.447Z,100865.28
2023-05-04T05:38:56.200Z,100856.19
2023-05-04T05:42:00.148Z,100854.47
2023-05-04T05:45:09.920Z,100854.50
2023-05-04T05:48:14.043Z,100858.81
2023-05-04T05:51:51.478Z,100861.69
2023-05-04T05:59:16.337Z,100895.34
2023-05-04T06:02:20.514Z,100878.75
2023-05-04T06:05:26.151Z,100850.78
2023-05-04T06:08:30.965Z,100865.00
2023-05-04T06:11:35.077Z,100862.25
2023-05-04T06:14:42.651Z,100872.22
2023-05-04T06:17:50.347Z,100859.22
2023-05-04T06:21:01.898Z,100875.28
2023-05-04T06:24:08.546Z,100874.06
2023-05-04T06:27:12.446Z,100871.47
2023-05-04T06:30:17.457Z,100889.91
2023-05-04T06:33:27.291Z,100898.13
2023-05-04T06:36:44.800Z,100894.00
2023-05-04T06:40:01.991Z,100908.84
2023-05-04T06:43:14.720Z,100913.31
2023-05-04T06:46:32.500Z,100915.75
2023-05-04T06:50:04.364Z,100927.44
2023-05-04T06:53:20.404Z,100913.44
2023-05-04T06:56:44.159Z,100914.97
2023-05-04T06:59:55.412Z,100924.38
2023-05-04T07:03:00.965Z,100917.56
2023-05-04T07:06:10.359Z,100930.13
2023-05-04T07:09:15.480Z,100923.75
2023-05-04T07:12:21.005Z,100925.09
2023-05-04T07:15:32.268Z,100929.53
2023-05-04T07:18:42.722Z,100934.34
2023-05-04T07:21:47.643Z,100919.16
2023-05-04T07:25:06.770Z,100920.19
2023-05-04T07:28:11.078Z,100920.47
2023-05-04T07:31:19.563Z,100927.34
2023-05-04T07:34:34.021Z,100924.66
2023-05-04T07:37:48.125Z,100916.97
2023-05-04T07:41:01.022Z,100937.16
2023-05-04T07:44:12.087Z,100938.59
2023-05-04T07:47:20.090Z,100934.72
2023-05-04T07:50:25.910Z,100940.00
2023-05-04T07:53:29.708Z,100923.28
2023-05-04T07:56:37.690Z,100946.06
2023-05-04T07:59:45.419Z,100947.81
2023-05-04T08:02:50.293Z,100937.78
2023-05-04T08:05:54.600Z,100931.22
2023-05-04T08:10:15.158Z,100928.81
2023-05-04T08:13:59.763Z,100938.66
2023-05-04T08:17:04.771Z,100936.16
2023-05-04T08:20:13.294Z,100936.84
2023-05-04T08:23:22.063Z,100937.50
2023-05-04T08:26:25.778Z,100936.50
2023-05-04T08:29:32.420Z,100954.88
2023-05-04T08:32:36.235Z,100943.75
2023-05-04T08:35:43.379Z,100935.81
2023-05-04T08:38:49.719Z,100942.75
2023-05-04T08:41:57.723Z,100940.50
2023-05-04T08:45:02.596Z,100952.41
2023-05-04T08:48:27.936Z,100963.97
2023-05-04T08:52:11.008Z,100957.28
2023-05-04T08:56:13.639Z,100956.38
2023-05-04T09:00:12.101Z,100950.81
2023-05-04T09:03:55.076Z,100932.09
2023-05-04T09:07:11.429Z,100949.47
2023-05-04T09:10:29.532Z,100961.50
2023-05-04T09:14:05.479Z,100961.22
2023-05-04T09:17:29.397Z,100958.34
2023-05-04T09:21:11.165Z,100955.53
2023-05-04T09:24:30.227Z,100961.38
2023-05-04T09:27:34.423Z,100951.13
2023-05-04T09:30:44.616Z,100952.81
2023-05-04T09:34:08.801Z,100948.75
2023-05-04T09:40:57.120Z,100945.06
2023-05-04T09:44:11.061Z,100952.06
2023-05-04T09:47:23.582Z,100929.44
2023-05-04T09:51:26.801Z,100941.84
2023-05-04T09:54:38.251Z,100929.31
2023-05-04T10:01:14.216Z,100930.94
2023-05-04T10:04:18.266Z,100952.91
2023-05-04T10:07:23.385Z,100932.19
2023-05-04T10:10:30.158Z,100922.06
2023-05-04T10:13:36.707Z,100911.34
2023-05-04T10:17:18.661Z,100907.06
2023-05-04T10:21:23.857Z,100899.44
2023-05-04T10:24:51.995Z,100888.94
2023-05-04T10:28:13.292Z,100888.19
2023-05-04T10:31:18.643Z,100898.03
2023-05-04T10:34:36.832Z,100870.03
2023-05-04T10:37:52.193Z,100884.41
2023-05-04T10:41:01.613Z,100857.41
2023-05-04T10:44:06.935Z,100873.81
2023-05-04T10:47:12.058Z,100872.91
2023-05-04T10:50:16.205Z,100874.84
2023-05-04T10:53:38.269Z,100875.00
2023-05-04T10:56:50.754Z,100856.78
2023-05-04T11:00:02.527Z,100857.50
2023-05-04T11:03:14.871Z,100853.72
2023-05-04T11:06:29.047Z,100847.44
2023-05-04T11:09:39.997Z,100853.25
2023-05-04T11:12:44.971Z,100844.09
2023-05-04T11:15:54.394Z,100858.94
2023-05-04T11:19:08.769Z,100847.56
2023-05-04T11:22:14.307Z,100837.09
2023-05-04T11:25:27.210Z,100852.56
2023-05-04T11:28:40.560Z,100844.22
2023-05-04T11:32:01.435Z,100845.44
2023-05-04T11:35:18.433Z,100819.16
2023-05-04T11:38:23.115Z,100809.81
2023-05-04T11:41:30.687Z,100829.31
2023-05-04T11:44:36.508Z,100814.75
2023-05-04T11:47:45.056Z,100812.13
2023-05-04T11:50:52.193Z,100809.66
2023-05-04T11:53:57.452Z,100811.88
2023-05-04T11:57:03.649Z,100813.88
2023-05-04T12:00:09.602Z,100813.31
2023-05-04T12:03:16.476Z,100799.09
2023-05-04T12:06:35.599Z,100812.38
2023-05-04T12:09:49.911Z,100808.31
2023-05-04T12:12:57.235Z,100817.09
2023-05-04T12:16:22.307Z,100810.09
2023-05-04T12:19:53.126Z,100804.00
2023-05-04T12:23:02.608Z,100790.09
2023-05-04T12:26:11.456Z,100798.06
2023-05-04T12:29:17.264Z,100797.25
2023-05-04T12:32:29.161Z,100782.41
2023-05-04T12:35:37.473Z,100777.69
2023-05-04T12:38:41.680Z,100790.88
2023-05-04T12:41:46.067Z,100779.66
2023-05-04T12:44:53.452Z,100782.63
2023-05-04T12:47:57.713Z,100773.28
2023-05-04T12:51:05.298Z,100774.13
2023-05-04T12:54:13.620Z,100763.88
2023-05-04T12:57:32.453Z,100784.91
2023-05-04T13:00:43.318Z,100770.94
2023-05-04T13:03:51.882Z,100776.34
2023-05-04T13:07:00.891Z,100777.25
2023-05-04T13:10:20.694Z,100752.78
2023-05-04T13:13:29.079Z,100737.16
2023-05-04T13:16:34.191Z,100773.16
2023-05-04T13:19:38.711Z,100771.63
2023-05-04T13:22:49.990Z,100772.03
2023-05-04T13:27:09.387Z,100742.69
2023-05-04T13:31:28.572Z,100747.41
2023-05-04T13:35:04.119Z,100769.88
2023-05-04T13:51:57.204Z,100716.13
2023-05-04T13:55:23.613Z,100747.66
2023-05-04T13:59:03.843Z,100742.81
2023-05-04T14:10:35.940Z,100735.47
2023-05-04T14:14:10.188Z,100739.22
2023-05-04T14:17:54.745Z,100735.41
2023-05-04T14:21:13.822Z,100737.88
2023-05-04T14:24:38.752Z,100721.63
2023-05-04T14:27:44.777Z,100742.00
2023-05-04T14:34:11.063Z,100734.47
2023-05-04T14:37:17.555Z,100744.53
2023-05-04T14:40:48.982Z,100704.59
2023-05-04T14:43:58.768Z,100727.56
2023-05-04T14:47:07.735Z,100732.28
2023-05-04T14:50:17.714Z,100728.94
2023-05-04T14:53:27.539Z,100738.91
2023-05-04T14:56:36.451Z,100720.53
2023-05-04T14:59:49.144Z,100728.56
2023-05-04T15:02:55.323Z,100731.44
2023-05-04T15:06:04.414Z,100730.06
2023-05-04T15:09:12.394Z,100722.75
2023-05-04T15:12:16.994Z,100743.47
2023-05-04T15:15:26.204Z,100725.72
2023-05-04T15:18:33.382Z,100736.00
2023-05-04T15:21:37.890Z,100748.84
2023-05-04T15:24:43.005Z,100743.03
2023-05-04T15:27:50.598Z,100742.22
2023-05-04T15:30:54.897Z,100731.16
2023-05-04T15:34:04.002Z,100735.22
2023-05-04T15:37:08.714Z,100743.06
2023-05-04T15:40:13.449Z,100732.97
2023-05-04T15:43:17.662Z,100720.00
2023-05-04T15:46:21.740Z,100744.56
2023-05-04T15:49:29.482Z,100740.72
2023-05-04T15:52:36.774Z,100728.72
2023-05-04T15:55:41.913Z,100742.97
2023-05-04T15:58:50.601Z,100744.28
2023-05-04T16:01:58.293Z,100734.13
2023-05-04T16:05:03.015Z,100732.81
2023-05-04T16:08:08.442Z,100747.44
2023-05-04T16:11:22.753Z,100748.31
2023-05-04T16:14:26.649Z,100746.31
2023-05-04T16:17:35.750Z,100738.75
2023-05-04T16:20:43.726Z,100757.78
2023-05-04T16:23:50.285Z,100752.28
2023-05-04T16:26:54.614Z,100742.78
2023-05-04T16:30:02.732Z,100724.72
2023-05-04T16:33:07.560Z,100736.81
2023-05-04T16:36:13.460Z,100763.00
2023-05-04T16:39:20.340Z,100758.19
2023-05-04T16:42:24.518Z,100763.72
2023-05-04T16:45:32.234Z,100749.97
2023-05-04T16:48:38.159Z,100740.25
2023-05-04T16:52:04.028Z,100758.22
2023-05-04T16:55:13.985Z,100742.38
2023-05-04T16:58:37.184Z,100767.84
2023-05-04T17:01:41.964Z,100763.34
2023-05-04T17:04:48.252Z,100758.78
2023-05-04T17:08:03.203Z,100767.31
2023-05-04T17:11:07.629Z,100785.56
2023-05-04T17:14:11.393Z,100782.22
2023-05-04T17:17:14.989Z,100789.19
2023-05-04T17:20:24.397Z,100790.72
2023-05-04T17:23:28.086Z,100792.31
2023-05-04T17:26:31.671Z,100792.06
2023-05-04T17:29:38.235Z,100804.56
2023-05-04T17:32:42.486Z,100821.53
2023-05-04T17:35:46.218Z,100819.50
2023-05-04T17:38:50.214Z,100813.03
2023-05-04T17:41:53.796Z,100822.25
2023-05-04T17:44:58.011Z,100832.13
2023-05-04T17:48:02.027Z,100828.44
2023-05-04T17:51:11.315Z,100853.00
2023-05-04T17:54:16.957Z,100855.97
2023-05-04T17:57:21.053Z,100855.25
2023-05-04T18:00:25.806Z,100865.94
2023-05-04T18:03:29.942Z,100864.56
2023-05-04T18:06:34.262Z,100868.34
2023-05-04T18:09:37.990Z,100878.59
2023-05-04T18:12:41.868Z,100876.06
2023-05-04T18:15:45.615Z,100887.31
2023-05-04T18:18:49.530Z,100884.13
2023-05-04T18:21:53.318Z,100888.72
2023-05-04T18:25:02.744Z,100893.16
2023-05-04T18:28:09.301Z,100895.28
2023-05-04T18:31:13.459Z,100899.63
2023-05-04T18:34:17.284Z,100900.19
2023-05-04T18:37:21.997Z,100894.31
2023-05-04T18:40:26.923Z,100900.53
2023-05-04T18:43:31.859Z,100899.06
2023-05-04T18:46:40.860Z,100908.72
2023-05-04T18:49:51.602Z,100919.28
2023-05-04T18:53:05.429Z,100917.78
2023-05-04T18:56:11.366Z,100923.94
2023-05-04T18:59:15.969Z,100914.06
2023-05-04T19:02:19.963Z,100919.34
2023-05-04T19:05:25.194Z,100915.06
2023-05-04T19:08:30.411Z,100920.88
2023-05-04T19:11:41.164Z,100927.09
2023-05-04T19:14:51.602Z,100924.81
2023-05-04T19:17:55.889Z,100924.19
2023-05-04T19:21:06.866Z,100923.41
2023-05-04T19:24:20.686Z,100931.56
2023-05-04T19:27:25.187Z,100929.56
2023-05-04T19:30:44.430Z,100931.41
2023-05-04T19:33:54.266Z,100930.00
2023-05-04T19:37:07.085Z,100918.06
2023-05-04T19:40:14.030Z,100923.59
2023-05-04T19:43:21.697Z,100923.22
2023-05-04T19:46:31.872Z,100940.56
2023-05-04T19:49:40.129Z,100933.50
2023-05-04T19:53:03.072Z,100938.47
2023-05-04T19:56:14.433Z,100923.25
2023-05-04T19:59:27.536Z,100928.03
2023-05-04T20:02:42.196Z,100926.00
2023-05-04T20:06:00.387Z,100908.28
2023-05-04T20:09:14.105Z,100931.66
2023-05-04T20:12:24.029Z,100937.91
2023-05-04T20:15:29.678Z,100934.56
2023-05-04T20:18:37.247Z,100936.09
2023-05-04T20:21:46.901Z,100933.75
2023-05-04T20:24:51.355Z,100894.91
2023-05-04T20:27:55.874Z,100931.75
2023-05-04T20:31:03.667Z,100930.34
2023-05-04T20:34:10.836Z,100929.34
2023-05-04T20:37:20.373Z,100929.59
2023-05-04T20:40:28.125Z,100933.59
2023-05-04T20:43:33.241Z,100940.97
2023-05-04T20:46:37.778Z,100940.44
2023-05-04T20:49:41.541Z,100928.06
2023-05-04T20:52:46.289Z,100925.78
2023-05-04T20:55:52.323Z,100937.03
2023-05-04T20:58:56.819Z,100926.88
2023-05-04T21:02:00.226Z,100928.59
2023-05-04T21:05:04.221Z,100926.56
2023-05-04T21:08:10.874Z,100925.56
2023-05-04T21:11:14.869Z,100922.19
2023-05-04T21:14:24.783Z,100919.03
2023-05-04T21:17:28.457Z,100930.03
2023-05-04T21:20:33.093Z,100911.50
2023-05-04T21:23:37.097Z,100921.47
2023-05-04T21:26:52.488Z,100925.66
2023-05-04T21:29:56.318Z,100923.03
2023-05-04T21:33:01.101Z,100926.09
2023-05-04T21:36:14.777Z,100923.06
2023-05-04T21:39:18.225Z,100924.06
2023-05-04T21:42:23.245Z,100925.19
2023-05-04T21:45:26.629Z,100927.53
2023-05-04T21:48:34.614Z,100924.53
2023-05-04T21:51:38.649Z,100921.47
2023-05-04T21:54:45.303Z,100925.66
2023-05-04T21:57:48.962Z,100929.59
2023-05-04T22:00:56.003Z,100928.44
2023-05-04T22:04:00.552Z,100926.09
2023-05-04T22:07:04.349Z,100922.91
2023-05-04T22:10:08.937Z,100926.34
2023-05-04T22:13:17.769Z,100913.91
2023-05-04T22:16:23.886Z,100898.75
2023-05-04T22:19:27.619Z,100915.78
2023-05-04T22:22:34.363Z,100908.94
2023-05-04T22:25:42.050Z,100923.03
2023-05-04T22:28:45.531Z,100927.31
2023-05-04T22:31:49.017Z,100921.03
2023-05-04T22:34:52.395Z,100916.88
2023-05-04T22:37:55.979Z,100918.06
2023-05-04T22:40:59.769Z,100917.75
2023-05-04T22:44:06.531Z,100911.81
2023-05-04T22:47:10.634Z,100919.78
2023-05-04T22:50:14.448Z,100922.94
2023-05-04T22:53:18.726Z,100926.22
2023-05-04T22:56:24.457Z,100917.88
2023-05-04T22:59:29.072Z,100913.97
2023-05-04T23:02:33.309Z,100906.38
2023-05-04T23:05:43.519Z,100899.69
2023-05-04T23:08:50.470Z,100907.03
2023-05-04T23:11:54.775Z,100912.47
2023-05-04T23:14:58.257Z,100903.03
2023-05-04T23:18:03.409Z,100909.03
2023-05-04T23:21:10.450Z,100898.69
2023-05-04T23:24:13.930Z,100906.44
2023-05-04T23:27:18.115Z,100909.63
2023-05-04T23:30:23.178Z,100903.81
2023-05-04T23:33:27.244Z,100898.31
2023-05-04T23:36:30.938Z,100910.25
2023-05-04T23:39:35.012Z,100905.34
2023-05-04T23:42:38.626Z,100899.22
2023-05-04T23:45:42.237Z,100900.44
2023-05-04T23:48:46.822Z,100907.63
2023-05-04T23:51:53.989Z,100901.75
2023-05-04T23:54:57.440Z,100898.50
2023-05-04T23:58:01.495Z,100894.72
